Terminal Aerodrome Forecast
Issued by NWS

Home | Current Version | Previous Version | Text Only | Print | Product List | Glossary On
Versions: 1 2 3 4 5 6 7 8 9 10 11 12 13 14 15 16 17 18 19 20 21 22 23 24 25 26 27 28 29 30 31 32 33 34 35 36 37 38 39 40
000
FTUS44 KHGX 220555 AAA
TAFSGR
TAF AMD
KSGR 220555Z 2206/2306 15007KT P6SM SCT007 SCT015 BKN040
     FM220900 17009KT 6SM BR OVC006
     FM221500 21010KT P6SM SCT007 BKN015
     FM221700 23012G22KT P6SM BKN025 BKN250
     FM222000 24010G20KT P6SM BKN250
     FM230100 33005KT P6SM BKN250=

USA.gov is the U.S. government's official web portal to all federal, state and local government web resources and services.